Time;durP1;ratioP1;P1;durP2;ratioP2;P2;SDS_P1;SDS_P2;PMS_P1;PMS_P2;Temp;Humidity;BMP_temperature;BMP_pressure;BME280_temperature;BME280_humidity;BME280_pressure;Samples;Min_cycle;Max_cycle;Signal;HPM_P1;HPM_P2
2021/12/19 00:00:10;;;;;;;0.38;0.10;;;18.90;56.40;;;;;;4995244;28;20057;-82
2021/12/19 00:10:27;;;;;;;0.35;0.10;;;18.90;56.40;;;;;;5012515;28;20057;-82
2021/12/19 00:12:53;;;;;;;0.73;0.17;;;18.90;56.30;;;;;;5014337;28;20046;-82
2021/12/19 00:15:19;;;;;;;0.17;0.10;;;18.90;56.30;;;;;;5014425;28;20042;-81
2021/12/19 00:17:45;;;;;;;0.52;0.20;;;18.90;56.30;;;;;;5013884;28;20866;-82
2021/12/19 00:20:10;;;;;;;0.45;0.10;;;18.90;56.30;;;;;;5014524;28;20056;-82
2021/12/19 00:22:36;;;;;;;0.22;0.10;;;18.90;56.30;;;;;;5014876;28;20493;-82
2021/12/19 00:25:02;;;;;;;0.65;0.20;;;18.90;56.30;;;;;;5008539;28;20053;-82
2021/12/19 00:27:28;;;;;;;0.45;0.20;;;18.90;56.30;;;;;;5014134;28;20037;-82
2021/12/19 00:29:53;;;;;;;0.98;0.13;;;18.90;56.20;;;;;;5013492;28;20136;-82
2021/12/19 00:32:19;;;;;;;0.60;0.15;;;18.90;56.20;;;;;;5014239;28;20447;-82
2021/12/19 00:34:44;;;;;;;0.17;0.10;;;18.90;56.20;;;;;;5013442;28;20073;-82
2021/12/19 00:37:11;;;;;;;0.43;0.10;;;18.90;56.20;;;;;;5013192;28;20045;-82
2021/12/19 00:39:37;;;;;;;0.30;0.10;;;18.90;56.20;;;;;;5014302;28;20402;-82
2021/12/19 00:42:07;;;;;;;0.35;0.10;;;18.90;56.20;;;;;;5013922;28;20050;-81
2021/12/19 00:44:35;;;;;;;0.90;0.10;;;18.90;56.20;;;;;;4997437;28;20534;-82
2021/12/19 00:47:07;;;;;;;0.55;0.10;;;18.90;56.20;;;;;;5013940;28;20487;-82
2021/12/19 00:49:36;;;;;;;1.35;0.20;;;18.90;56.20;;;;;;5013696;28;20049;-82
2021/12/19 00:52:02;;;;;;;0.40;0.10;;;18.90;56.20;;;;;;5012907;28;20044;-82
2021/12/19 00:54:28;;;;;;;0.70;0.10;;;18.90;56.90;;;;;;5013487;28;20044;-82
2021/12/19 00:56:53;;;;;;;0.17;0.10;;;18.90;56.10;;;;;;5007301;28;20054;-82
2021/12/19 00:59:19;;;;;;;0.30;0.13;;;18.90;56.10;;;;;;5009730;28;20394;-82
2021/12/19 01:01:44;;;;;;;0.57;0.15;;;18.90;56.10;;;;;;5003417;28;20042;-82
2021/12/19 01:04:12;;;;;;;0.10;0.10;;;19.00;56.20;;;;;;5010469;28;20042;-81
2021/12/19 01:06:38;;;;;;;0.30;0.10;;;18.90;56.80;;;;;;5009562;28;20054;-82
2021/12/19 01:09:04;;;;;;;0.55;0.15;;;18.90;56.20;;;;;;5011410;28;20500;-82
2021/12/19 01:11:30;;;;;;;0.30;0.08;;;18.90;56.10;;;;;;5009299;28;20464;-82
2021/12/19 01:13:56;;;;;;;0.10;0.08;;;18.80;56.00;;;;;;5010957;28;20128;-81
2021/12/19 01:16:22;;;;;;;0.10;0.10;;;18.80;56.00;;;;;;5008271;28;20484;-82
2021/12/19 01:18:47;;;;;;;0.80;0.10;;;18.90;56.10;;;;;;5003738;28;20050;-82
2021/12/19 01:21:13;;;;;;;0.13;0.10;;;18.80;56.00;;;;;;5009316;28;20129;-82
2021/12/19 01:23:38;;;;;;;0.80;0.20;;;18.80;56.00;;;;;;5001774;28;20045;-82
2021/12/19 01:26:04;;;;;;;0.30;0.10;;;18.80;56.00;;;;;;5010243;28;20050;-82
2021/12/19 01:28:30;;;;;;;0.22;0.10;;;18.80;56.00;;;;;;5005650;28;20061;-82
2021/12/19 01:30:55;;;;;;;0.32;0.10;;;18.80;56.00;;;;;;5003986;28;20057;-81
2021/12/19 01:33:21;;;;;;;0.10;0.10;;;18.80;56.00;;;;;;5009135;28;20054;-82
2021/12/19 01:35:46;;;;;;;1.02;0.20;;;18.80;56.00;;;;;;5002828;28;20137;-82
2021/12/19 01:38:12;;;;;;;0.38;0.10;;;18.80;56.00;;;;;;5008515;28;20046;-82
2021/12/19 01:40:37;;;;;;;0.80;0.20;;;18.80;56.00;;;;;;5001034;28;20057;-82
2021/12/19 01:43:03;;;;;;;0.65;0.10;;;18.80;56.00;;;;;;5007909;28;20108;-82
2021/12/19 01:45:36;;;;;;;0.43;0.20;;;18.80;56.00;;;;;;5009001;28;20096;-82
2021/12/19 01:48:05;;;;;;;0.40;0.10;;;18.80;56.00;;;;;;5003612;28;20089;-82
2021/12/19 01:50:31;;;;;;;0.30;0.15;;;18.80;56.00;;;;;;5008112;28;20089;-81
2021/12/19 01:52:57;;;;;;;0.40;0.15;;;18.80;55.90;;;;;;5032434;28;20087;-81
2021/12/19 01:55:23;;;;;;;0.50;0.15;;;18.80;55.90;;;;;;5031537;28;20041;-82
2021/12/19 01:57:49;;;;;;;0.40;0.10;;;18.80;56.00;;;;;;5032094;28;20052;-82
2021/12/19 02:00:26;;;;;;;0.10;0.10;;;18.80;55.90;;;;;;5032415;28;20056;-82
2021/12/19 02:02:52;;;;;;;0.70;0.20;;;19.10;56.10;;;;;;5031467;28;20053;-82
2021/12/19 02:05:18;;;;;;;0.20;0.10;;;18.80;55.90;;;;;;5032134;28;20056;-82
2021/12/19 02:07:46;;;;;;;0.25;0.10;;;19.90;56.50;;;;;;5032250;28;20499;-82
2021/12/19 02:10:23;;;;;;;0.43;0.28;;;18.80;55.90;;;;;;5029800;28;20072;-81
2021/12/19 02:12:49;;;;;;;0.10;0.10;;;18.80;55.90;;;;;;5032427;28;20492;-81
2021/12/19 02:15:18;;;;;;;0.22;0.10;;;18.80;55.90;;;;;;5032033;28;20045;-82
2021/12/19 02:17:44;;;;;;;0.47;0.10;;;18.80;55.90;;;;;;5031618;28;20067;-81
2021/12/19 02:20:11;;;;;;;0.55;0.10;;;18.70;55.90;;;;;;5031793;28;20037;-82
2021/12/19 02:22:36;;;;;;;0.35;0.10;;;18.80;55.90;;;;;;5028127;28;20069;-83
2021/12/19 02:25:02;;;;;;;0.10;0.10;;;18.80;55.90;;;;;;5044900;28;20163;-81
2021/12/19 02:27:29;;;;;;;0.20;0.10;;;18.70;55.80;;;;;;5031111;28;20053;-81
2021/12/19 02:29:56;;;;;;;0.15;0.10;;;18.70;55.80;;;;;;5031051;28;20044;-81
2021/12/19 02:32:23;;;;;;;0.20;0.10;;;18.70;55.80;;;;;;5032032;28;20519;-81
2021/12/19 02:34:50;;;;;;;0.82;0.10;;;18.70;55.80;;;;;;5015286;28;20049;-82
2021/12/19 02:48:14;;;;;;;0.13;0.10;;;18.70;55.80;;;;;;4991845;28;20417;-81
2021/12/19 02:50:50;;;;;;;0.50;0.20;;;18.70;55.80;;;;;;4991403;28;20512;-81
2021/12/19 02:53:19;;;;;;;1.00;0.10;;;18.70;55.80;;;;;;4992210;28;20169;-81
2021/12/19 02:55:45;;;;;;;0.22;0.10;;;18.70;55.80;;;;;;4992047;28;20046;-82
2021/12/19 02:58:11;;;;;;;0.30;0.10;;;18.70;55.80;;;;;;4990932;28;20091;-81
2021/12/19 03:00:36;;;;;;;0.10;0.10;;;18.70;55.80;;;;;;4992014;28;20393;-82
2021/12/19 03:03:02;;;;;;;0.10;0.00;;;18.70;55.80;;;;;;4991861;28;20042;-81
2021/12/19 03:05:30;;;;;;;0.38;0.20;;;18.60;55.70;;;;;;4991216;28;20100;-81
2021/12/19 03:07:56;;;;;;;0.30;0.10;;;18.70;55.80;;;;;;4992258;28;20093;-82
2021/12/19 03:13:22;;;;;;;0.13;0.10;;;18.60;55.80;;;;;;4991227;28;20050;-81
2021/12/19 03:18:31;;;;;;;0.20;0.03;;;18.60;55.70;;;;;;4992018;28;20053;-82
2021/12/19 03:20:57;;;;;;;0.70;0.10;;;18.60;55.70;;;;;;4958988;28;20046;-81
2021/12/19 03:23:23;;;;;;;0.00;0.00;;;18.60;55.70;;;;;;4991918;28;20530;-82
2021/12/19 03:25:48;;;;;;;0.30;0.10;;;18.60;55.70;;;;;;4991200;28;20046;-82
2021/12/19 03:28:14;;;;;;;0.10;0.10;;;18.60;55.80;;;;;;4991761;28;20058;-83
2021/12/19 03:30:41;;;;;;;0.30;0.20;;;18.60;55.70;;;;;;4983065;28;20058;-82
2021/12/19 03:33:07;;;;;;;0.52;0.10;;;19.90;56.40;;;;;;4983928;28;20666;-82
2021/12/19 03:35:32;;;;;;;0.20;0.10;;;19.40;56.10;;;;;;4970831;28;20067;-82
2021/12/19 03:37:59;;;;;;;0.15;0.10;;;18.60;55.70;;;;;;4970999;28;20141;-82
2021/12/19 03:40:35;;;;;;;0.47;0.13;;;18.60;55.70;;;;;;4970235;28;20593;-82
2021/12/19 03:43:01;;;;;;;0.43;0.17;;;18.60;55.70;;;;;;4970727;28;20149;-82
2021/12/19 03:45:26;;;;;;;0.20;0.10;;;18.60;55.70;;;;;;4970960;28;20133;-82
2021/12/19 03:47:52;;;;;;;0.32;0.17;;;19.40;56.10;;;;;;4970144;28;20425;-82
2021/12/19 03:50:21;;;;;;;0.20;0.13;;;18.60;55.70;;;;;;4971007;28;21143;-82
2021/12/19 03:52:47;;;;;;;0.10;0.08;;;18.60;55.70;;;;;;4970986;28;20050;-82
2021/12/19 03:55:12;;;;;;;0.40;0.10;;;19.30;56.10;;;;;;4970014;28;20053;-82
2021/12/19 03:57:38;;;;;;;0.10;0.10;;;18.60;55.70;;;;;;4970743;28;20054;-83
2021/12/19 04:00:05;;;;;;;1.08;0.13;;;18.60;55.70;;;;;;4970758;28;20477;-82
2021/12/19 04:02:31;;;;;;;0.13;0.10;;;18.60;55.70;;;;;;4970377;28;20050;-82
2021/12/19 04:04:57;;;;;;;0.13;0.10;;;18.60;55.70;;;;;;4980403;28;20049;-82
2021/12/19 04:07:23;;;;;;;0.30;0.10;;;18.50;55.70;;;;;;4991679;28;20050;-82
2021/12/19 04:09:49;;;;;;;0.20;0.00;;;18.60;55.70;;;;;;4991921;28;20490;-82
2021/12/19 04:12:15;;;;;;;0.10;0.05;;;18.60;55.70;;;;;;4994963;28;20108;-83
2021/12/19 04:14:41;;;;;;;0.10;0.10;;;18.60;55.70;;;;;;4994907;28;20037;-82
2021/12/19 04:17:06;;;;;;;0.20;0.10;;;18.90;55.80;;;;;;4992499;28;20087;-82
2021/12/19 04:19:32;;;;;;;0.10;0.00;;;18.50;55.70;;;;;;5014049;28;20064;-82
2021/12/19 04:21:59;;;;;;;0.10;0.08;;;18.70;55.80;;;;;;4998071;28;20054;-82
2021/12/19 04:24:24;;;;;;;0.80;0.20;;;18.50;55.60;;;;;;4994479;28;20057;-82
2021/12/19 04:26:50;;;;;;;0.40;0.10;;;18.50;55.60;;;;;;4994841;28;20390;-82
2021/12/19 04:29:15;;;;;;;0.43;0.10;;;18.50;55.60;;;;;;4994062;28;20133;-82
2021/12/19 04:31:41;;;;;;;0.25;0.10;;;18.50;55.70;;;;;;4994465;28;20076;-82
2021/12/19 04:34:07;;;;;;;0.93;0.20;;;18.50;55.60;;;;;;4994690;28;20034;-82
2021/12/19 04:36:38;;;;;;;0.20;0.00;;;18.50;55.60;;;;;;4993937;28;20061;-82
2021/12/19 04:39:26;;;;;;;0.32;0.10;;;18.50;55.60;;;;;;4994464;28;20050;-82
2021/12/19 04:44:47;;;;;;;0.15;0.10;;;18.50;55.60;;;;;;4993594;28;20164;-82
2021/12/19 04:58:15;;;;;;;0.10;0.08;;;18.40;55.50;;;;;;5023788;28;20107;-82
2021/12/19 05:01:38;;;;;;;0.65;0.10;;;18.40;55.50;;;;;;5014009;28;20120;-82
2021/12/19 05:06:07;;;;;;;0.40;0.10;;;18.60;55.60;;;;;;5012764;28;20061;-82
2021/12/19 05:14:10;;;;;;;0.10;0.08;;;18.40;55.50;;;;;;5013645;28;20041;-82
2021/12/19 05:16:39;;;;;;;0.00;0.00;;;18.40;55.50;;;;;;5013750;28;20432;-82
2021/12/19 05:19:23;;;;;;;0.10;0.05;;;18.40;55.50;;;;;;5012938;28;20483;-82
2021/12/19 05:21:52;;;;;;;0.40;0.10;;;18.40;55.50;;;;;;5013259;28;20413;-82
2021/12/19 05:24:47;;;;;;;0.10;0.10;;;18.40;55.50;;;;;;5013334;28;20037;-82
2021/12/19 05:27:12;;;;;;;0.35;0.00;;;18.40;55.50;;;;;;5012971;28;20132;-82
2021/12/19 05:29:38;;;;;;;0.17;0.10;;;18.40;55.60;;;;;;5013616;28;20128;-82
2021/12/19 05:32:04;;;;;;;0.08;0.00;;;18.40;55.60;;;;;;5013151;28;20045;-82
2021/12/19 05:34:30;;;;;;;0.20;0.00;;;18.40;55.60;;;;;;5012118;28;20405;-82
2021/12/19 05:45:12;;;;;;;0.28;0.10;;;18.50;55.80;;;;;;5012785;28;20144;-82
2021/12/19 05:47:39;;;;;;;0.20;0.10;;;18.50;55.90;;;;;;5012419;28;20088;-83
2021/12/19 05:50:05;;;;;;;0.10;0.00;;;18.40;55.80;;;;;;5012943;28;20045;-82
2021/12/19 05:52:30;;;;;;;0.73;0.00;;;18.40;55.90;;;;;;5012742;28;20045;-82
2021/12/19 05:54:56;;;;;;;0.00;0.00;;;18.50;55.90;;;;;;5012245;28;20068;-82
2021/12/19 05:57:21;;;;;;;0.00;0.00;;;18.50;55.90;;;;;;5012540;28;20046;-82
2021/12/19 05:59:47;;;;;;;0.00;0.00;;;18.50;56.00;;;;;;5012486;28;20463;-82
2021/12/19 06:02:12;;;;;;;0.00;0.00;;;18.50;56.00;;;;;;5011973;28;20046;-82
2021/12/19 06:04:38;;;;;;;0.43;0.08;;;18.50;56.70;;;;;;5012255;28;20045;-82
2021/12/19 06:07:04;;;;;;;0.00;0.00;;;18.50;55.90;;;;;;5012220;28;20049;-82
2021/12/19 06:09:29;;;;;;;0.28;0.00;;;18.60;56.00;;;;;;5011630;28;20057;-82
2021/12/19 06:11:55;;;;;;;0.00;0.00;;;18.50;55.90;;;;;;5012116;28;20049;-82
2021/12/19 06:14:20;;;;;;;0.08;0.00;;;18.60;55.90;;;;;;5012435;28;20057;-82
2021/12/19 06:16:46;;;;;;;0.08;0.00;;;18.60;56.00;;;;;;5011669;28;20041;-82
2021/12/19 06:19:11;;;;;;;0.05;0.00;;;18.60;56.00;;;;;;5012211;28;20096;-82
2021/12/19 06:21:37;;;;;;;0.00;0.00;;;18.60;56.00;;;;;;5011942;28;20053;-82
2021/12/19 06:24:02;;;;;;;0.10;0.00;;;18.60;55.90;;;;;;5012427;28;20049;-82
2021/12/19 06:26:28;;;;;;;0.00;0.00;;;18.60;55.90;;;;;;5012285;28;20053;-82
2021/12/19 06:28:54;;;;;;;0.00;0.00;;;18.60;55.90;;;;;;5011430;28;20049;-82
2021/12/19 06:31:19;;;;;;;0.10;0.00;;;18.60;56.00;;;;;;5016763;28;20056;-82
2021/12/19 06:33:45;;;;;;;0.08;0.08;;;18.60;55.90;;;;;;5014654;28;20045;-82
2021/12/19 06:36:10;;;;;;;0.10;0.10;;;18.60;55.90;;;;;;5010726;28;20073;-82
2021/12/19 06:38:36;;;;;;;0.20;0.00;;;18.60;55.90;;;;;;5011749;28;20405;-82
2021/12/19 06:41:01;;;;;;;0.30;0.00;;;18.70;56.00;;;;;;5011524;28;20041;-82
2021/12/19 06:43:30;;;;;;;0.00;0.00;;;18.60;55.90;;;;;;5010688;28;20092;-82
2021/12/19 06:45:56;;;;;;;0.10;0.00;;;18.70;56.00;;;;;;5011774;28;20053;-82
2021/12/19 06:48:24;;;;;;;0.10;0.00;;;18.70;56.60;;;;;;5011450;28;20137;-82
2021/12/19 06:50:50;;;;;;;0.03;0.00;;;18.70;56.00;;;;;;5011222;28;20060;-82
2021/12/19 06:53:16;;;;;;;0.38;0.10;;;18.70;56.00;;;;;;5011989;28;20523;-82
2021/12/19 06:55:41;;;;;;;0.00;0.00;;;18.70;56.00;;;;;;5011964;28;20049;-82
2021/12/19 06:58:07;;;;;;;0.43;0.00;;;18.70;56.00;;;;;;5010905;28;20041;-82
2021/12/19 07:00:32;;;;;;;0.73;0.10;;;18.70;56.00;;;;;;5011840;28;20045;-82
2021/12/19 07:02:58;;;;;;;0.00;0.00;;;18.70;56.00;;;;;;5011822;28;20042;-83
2021/12/19 07:05:23;;;;;;;0.08;0.00;;;18.80;56.00;;;;;;5010782;28;20037;-82
2021/12/19 07:07:49;;;;;;;0.00;0.00;;;18.80;56.00;;;;;;5011864;28;20046;-82
2021/12/19 07:10:14;;;;;;;0.10;0.00;;;18.80;56.00;;;;;;5011432;28;20656;-82
2021/12/19 07:12:40;;;;;;;0.10;0.10;;;18.80;56.00;;;;;;5010720;28;20051;-82
2021/12/19 07:15:06;;;;;;;0.00;0.00;;;18.80;56.10;;;;;;5011579;28;20057;-81
2021/12/19 07:17:32;;;;;;;0.57;0.10;;;18.80;56.00;;;;;;5011697;28;20449;-82
2021/12/19 07:19:58;;;;;;;0.10;0.10;;;18.80;56.00;;;;;;5011034;28;20046;-82
2021/12/19 07:22:23;;;;;;;0.10;0.10;;;18.90;56.10;;;;;;5011909;28;20037;-82
2021/12/19 07:24:49;;;;;;;0.17;0.00;;;18.90;56.20;;;;;;5011107;28;20381;-82
2021/12/19 07:27:14;;;;;;;0.30;0.00;;;18.90;56.10;;;;;;5011518;28;20168;-82
2021/12/19 07:29:40;;;;;;;0.15;0.08;;;18.90;56.00;;;;;;5011406;28;20092;-82
2021/12/19 07:32:06;;;;;;;0.10;0.00;;;18.90;56.00;;;;;;5010579;28;20049;-82
2021/12/19 07:34:34;;;;;;;0.10;0.00;;;19.00;56.10;;;;;;4995037;28;20393;-82
2021/12/19 07:37:00;;;;;;;0.10;0.05;;;19.00;56.00;;;;;;5011156;28;20145;-83
2021/12/19 07:42:09;;;;;;;0.00;0.00;;;19.00;56.00;;;;;;5028109;28;20410;-83
2021/12/19 07:44:35;;;;;;;0.65;0.00;;;19.00;55.90;;;;;;5013158;28;20107;-83
2021/12/19 07:47:00;;;;;;;0.10;0.00;;;19.00;55.90;;;;;;5030960;28;20046;-83
2021/12/19 07:49:26;;;;;;;0.00;0.00;;;19.00;55.90;;;;;;5014811;28;20038;-83
2021/12/19 07:51:51;;;;;;;0.10;0.00;;;19.00;55.90;;;;;;5014702;28;20056;-82
2021/12/19 07:54:17;;;;;;;0.10;0.00;;;19.10;55.90;;;;;;5014393;28;20041;-83
2021/12/19 07:56:42;;;;;;;0.00;0.00;;;19.00;55.80;;;;;;5014862;28;20124;-82
2021/12/19 07:59:08;;;;;;;0.32;0.10;;;19.00;55.80;;;;;;5023533;28;20103;-82
2021/12/19 08:01:34;;;;;;;0.25;0.00;;;19.10;55.80;;;;;;5014231;28;20707;-83
2021/12/19 08:03:59;;;;;;;0.00;0.00;;;19.10;55.80;;;;;;5014476;28;20045;-83
2021/12/19 08:06:25;;;;;;;0.05;0.00;;;19.10;56.50;;;;;;5015503;28;20064;-82
2021/12/19 08:08:53;;;;;;;0.52;0.10;;;19.10;55.70;;;;;;5014363;28;20529;-82
2021/12/19 08:14:04;;;;;;;0.30;0.00;;;19.10;55.70;;;;;;5014319;28;20084;-82
2021/12/19 08:16:29;;;;;;;0.40;0.30;;;19.10;56.30;;;;;;5014552;28;20475;-83
2021/12/19 08:18:55;;;;;;;0.45;0.10;;;19.10;55.70;;;;;;5015266;28;20033;-82
2021/12/19 08:21:20;;;;;;;0.10;0.00;;;19.10;55.60;;;;;;5032866;28;20041;-82
2021/12/19 08:23:46;;;;;;;0.30;0.10;;;19.10;55.60;;;;;;5018305;28;20048;-82
2021/12/19 08:26:11;;;;;;;0.20;0.00;;;19.10;55.60;;;;;;5013613;28;20049;-82
2021/12/19 08:28:37;;;;;;;0.28;0.00;;;19.10;55.60;;;;;;5013093;28;20485;-82
2021/12/19 08:31:03;;;;;;;1.17;0.10;;;19.10;55.60;;;;;;5013348;28;20429;-82
2021/12/19 08:33:28;;;;;;;0.35;0.00;;;19.10;55.60;;;;;;5014634;28;20068;-82
2021/12/19 08:35:54;;;;;;;0.63;0.10;;;19.80;55.90;;;;;;5015223;28;20103;-82
2021/12/19 08:38:20;;;;;;;0.63;0.10;;;19.10;55.50;;;;;;5004454;28;20061;-82
2021/12/19 08:40:47;;;;;;;8.00;0.30;;;19.10;55.50;;;;;;5018310;28;20507;-82
2021/12/19 08:43:13;;;;;;;0.20;0.10;;;19.10;55.50;;;;;;5016665;28;20061;-82
2021/12/19 08:45:39;;;;;;;0.10;0.00;;;19.10;55.50;;;;;;5012815;28;20053;-82
2021/12/19 08:48:05;;;;;;;1.20;0.20;;;19.10;55.50;;;;;;5013854;28;20067;-81
2021/12/19 08:50:30;;;;;;;0.43;0.08;;;19.00;55.40;;;;;;5013036;28;20564;-82
2021/12/19 08:52:56;;;;;;;0.20;0.10;;;19.90;55.90;;;;;;5012426;28;20530;-82
2021/12/19 08:55:22;;;;;;;0.68;0.10;;;19.00;55.40;;;;;;5019896;28;20045;-82
2021/12/19 08:57:47;;;;;;;0.73;0.10;;;19.10;55.50;;;;;;5012377;28;20428;-82
2021/12/19 09:00:14;;;;;;;0.35;0.10;;;19.10;55.50;;;;;;5013060;28;20050;-82
2021/12/19 09:02:42;;;;;;;0.50;0.10;;;19.00;55.40;;;;;;5013103;28;20104;-83
2021/12/19 09:05:08;;;;;;;0.20;0.05;;;19.10;55.40;;;;;;5014700;28;20132;-82
2021/12/19 09:07:33;;;;;;;0.65;0.10;;;19.00;55.40;;;;;;5014305;28;20073;-82
2021/12/19 09:09:59;;;;;;;0.68;0.10;;;19.00;55.40;;;;;;5013308;28;20099;-82
2021/12/19 09:12:25;;;;;;;1.17;0.10;;;19.00;55.40;;;;;;5012137;28;20789;-81
2021/12/19 09:14:51;;;;;;;0.13;0.08;;;19.00;55.40;;;;;;5012808;28;20385;-81
2021/12/19 09:17:16;;;;;;;0.10;0.00;;;19.00;55.40;;;;;;5014454;28;20044;-81
2021/12/19 09:19:42;;;;;;;0.25;0.10;;;19.00;55.40;;;;;;5014709;28;20045;-81
2021/12/19 09:22:07;;;;;;;0.43;0.20;;;19.00;55.30;;;;;;5015831;28;20569;-81
2021/12/19 09:24:33;;;;;;;0.50;0.08;;;19.00;55.40;;;;;;5015553;28;20120;-81
2021/12/19 09:27:00;;;;;;;0.77;0.15;;;19.00;55.30;;;;;;5016653;28;20046;-81
2021/12/19 09:29:28;;;;;;;0.20;0.10;;;19.00;55.40;;;;;;5011635;28;20524;-81
2021/12/19 09:31:54;;;;;;;0.40;0.10;;;19.00;55.30;;;;;;5011948;28;20052;-82
2021/12/19 09:34:19;;;;;;;0.40;0.10;;;19.00;55.40;;;;;;5012631;28;20041;-82
2021/12/19 09:36:45;;;;;;;0.70;0.10;;;19.00;55.40;;;;;;5012638;28;20111;-82
2021/12/19 09:39:10;;;;;;;0.80;0.17;;;19.00;55.40;;;;;;5012140;28;20136;-82
2021/12/19 09:41:42;;;;;;;0.50;0.10;;;19.00;55.30;;;;;;5012802;28;20053;-81
2021/12/19 09:44:09;;;;;;;0.35;0.10;;;19.00;55.30;;;;;;4997220;28;20045;-81
2021/12/19 09:46:36;;;;;;;0.50;0.20;;;19.00;55.40;;;;;;5011644;28;20397;-82
2021/12/19 09:49:06;;;;;;;0.17;0.00;;;19.00;55.40;;;;;;5029348;28;20489;-82
2021/12/19 09:51:32;;;;;;;0.93;0.20;;;19.00;55.40;;;;;;5012214;28;20057;-82
2021/12/19 09:53:57;;;;;;;0.30;0.10;;;19.00;55.40;;;;;;5011543;28;20092;-82
2021/12/19 09:56:23;;;;;;;0.85;0.10;;;19.00;55.40;;;;;;5012476;28;20046;-81
2021/12/19 09:58:49;;;;;;;0.80;0.10;;;19.00;55.40;;;;;;4996858;28;20038;-82
2021/12/19 10:01:14;;;;;;;1.13;0.10;;;19.00;55.40;;;;;;5013425;28;20512;-81
2021/12/19 10:03:40;;;;;;;0.90;0.30;;;19.00;55.40;;;;;;4972689;28;20062;-81
2021/12/19 10:06:19;;;;;;;0.50;0.10;;;19.00;55.40;;;;;;4985091;28;20099;-79
2021/12/19 10:08:46;;;;;;;2.13;0.17;;;19.00;55.40;;;;;;4977787;28;20313;-76
2021/12/19 10:11:46;;;;;;;3.53;0.20;;;19.00;55.50;;;;;;4986481;28;20062;-77
2021/12/19 10:14:29;;;;;;;1.55;0.20;;;19.00;55.50;;;;;;4993099;28;20053;-79
2021/12/19 10:16:57;;;;;;;2.53;0.30;;;19.00;55.50;;;;;;4987169;28;20049;-78
2021/12/19 10:19:40;;;;;;;2.70;0.25;;;19.00;55.60;;;;;;5009823;28;20088;-77
2021/12/19 10:22:05;;;;;;;3.85;0.35;;;19.00;55.70;;;;;;4974520;28;20570;-81
2021/12/19 10:24:32;;;;;;;1.98;0.30;;;19.00;55.70;;;;;;4967923;28;20045;-80
2021/12/19 10:26:58;;;;;;;3.42;0.30;;;19.00;55.70;;;;;;4991331;28;20477;-80
2021/12/19 10:29:41;;;;;;;1.92;0.30;;;19.00;55.80;;;;;;4996673;28;20084;-81
2021/12/19 10:32:07;;;;;;;2.13;0.30;;;19.00;55.80;;;;;;5011638;28;20081;-79
2021/12/19 10:34:32;;;;;;;2.22;0.20;;;19.70;56.10;;;;;;4999409;28;20076;-79
2021/12/19 10:36:58;;;;;;;2.03;0.30;;;19.00;55.90;;;;;;5006228;28;20033;-80
2021/12/19 10:39:26;;;;;;;0.20;0.10;;;19.70;56.20;;;;;;4995776;28;20516;-79
2021/12/19 10:41:59;;;;;;;4.03;0.20;;;19.10;55.90;;;;;;4988203;28;20425;-80
2021/12/19 10:47:26;;;;;;;0.85;0.35;;;19.40;56.10;;;;;;5003929;28;20053;-80
2021/12/19 10:49:52;;;;;;;1.23;0.30;;;19.10;56.00;;;;;;4992791;28;20073;-79
2021/12/19 10:52:32;;;;;;;0.80;0.20;;;19.10;56.00;;;;;;4991695;28;20042;-80
2021/12/19 10:55:05;;;;;;;0.82;0.20;;;19.10;55.90;;;;;;5004582;28;20062;-79
2021/12/19 10:57:36;;;;;;;2.25;0.40;;;19.10;55.90;;;;;;5010123;28;20542;-80
2021/12/19 11:00:05;;;;;;;2.70;0.30;;;19.10;55.90;;;;;;5011446;28;20053;-80
2021/12/19 11:02:42;;;;;;;2.45;0.30;;;19.10;55.90;;;;;;4976353;28;20061;-80
2021/12/19 11:05:32;;;;;;;2.90;0.40;;;19.10;55.90;;;;;;4990753;28;20046;-79
2021/12/19 11:08:02;;;;;;;1.33;0.28;;;19.10;55.80;;;;;;4993802;28;20524;-80
2021/12/19 11:10:28;;;;;;;2.40;0.40;;;19.10;55.80;;;;;;4990563;28;20718;-80
2021/12/19 11:13:08;;;;;;;0.85;0.28;;;19.10;55.80;;;;;;4990979;28;20050;-79
2021/12/19 11:15:34;;;;;;;1.00;0.40;;;19.00;55.70;;;;;;4992852;28;20409;-80
2021/12/19 11:17:59;;;;;;;0.80;0.20;;;19.10;55.70;;;;;;4989967;28;20042;-79
2021/12/19 11:20:25;;;;;;;1.08;0.30;;;19.00;55.70;;;;;;4978655;28;20133;-78
2021/12/19 11:22:50;;;;;;;1.38;0.30;;;19.00;55.70;;;;;;4996180;28;20049;-80
2021/12/19 11:25:16;;;;;;;1.55;0.40;;;19.00;55.60;;;;;;4994563;28;20038;-80
2021/12/19 11:27:41;;;;;;;1.42;0.32;;;19.00;55.70;;;;;;4999639;28;20045;-80
2021/12/19 11:30:07;;;;;;;1.88;0.40;;;19.00;55.70;;;;;;4995439;28;20536;-81
2021/12/19 11:32:42;;;;;;;2.90;0.40;;;19.00;55.70;;;;;;4981334;28;20056;-81
2021/12/19 11:35:11;;;;;;;0.93;0.25;;;18.90;55.60;;;;;;5014806;28;20034;-81
2021/12/19 11:37:43;;;;;;;1.33;0.40;;;18.90;55.70;;;;;;4944168;28;20410;-81
2021/12/19 11:40:09;;;;;;;0.75;0.22;;;18.90;55.60;;;;;;4981634;28;20141;-82
2021/12/19 11:42:38;;;;;;;0.68;0.22;;;18.90;55.70;;;;;;4996413;28;20102;-81
2021/12/19 11:47:56;;;;;;;2.47;0.38;;;18.90;55.70;;;;;;5050781;28;20057;-81
2021/12/19 11:50:33;;;;;;;1.58;0.30;;;18.80;55.70;;;;;;5034286;28;20047;-80
2021/12/19 11:53:07;;;;;;;1.10;0.30;;;18.80;55.70;;;;;;5034088;28;20045;-81
2021/12/19 11:55:34;;;;;;;1.02;0.55;;;18.80;55.70;;;;;;5034238;28;20405;-80
2021/12/19 11:58:09;;;;;;;0.82;0.22;;;18.80;55.70;;;;;;5050693;28;20045;-83
2021/12/19 12:00:38;;;;;;;0.98;0.20;;;18.80;55.80;;;;;;5033763;28;20044;-82
2021/12/19 12:03:13;;;;;;;0.68;0.25;;;18.80;55.80;;;;;;5038058;23;20540;-81
2021/12/19 12:05:43;;;;;;;1.40;0.20;;;18.80;55.80;;;;;;5030992;28;20080;-81
2021/12/19 12:08:19;;;;;;;1.50;0.30;;;18.80;55.80;;;;;;5030407;28;20049;-82
2021/12/19 12:10:48;;;;;;;1.58;0.30;;;18.80;55.80;;;;;;5011322;28;20050;-81
2021/12/19 12:13:34;;;;;;;1.17;0.30;;;18.80;55.90;;;;;;5010495;28;20064;-82
2021/12/19 12:16:33;;;;;;;1.60;0.28;;;18.80;55.90;;;;;;5014905;28;20049;-81
2021/12/19 12:19:44;;;;;;;1.90;0.38;;;18.70;55.80;;;;;;5085694;23;20041;-81
2021/12/19 12:22:27;;;;;;;0.98;0.30;;;18.70;55.80;;;;;;5034034;28;20506;-81
2021/12/19 12:25:02;;;;;;;2.17;0.52;;;17.20;55.00;;;;;;5034109;28;20056;-80
2021/12/19 12:27:51;;;;;;;1.75;0.22;;;18.50;55.80;;;;;;5033590;28;20132;-80
2021/12/19 12:30:23;;;;;;;1.15;0.50;;;18.70;56.00;;;;;;5033314;28;20052;-80
2021/12/19 12:32:48;;;;;;;1.58;0.40;;;18.70;55.90;;;;;;5051689;28;20045;-80
2021/12/19 12:35:28;;;;;;;2.13;0.45;;;18.70;55.90;;;;;;5033896;28;20095;-82
2021/12/19 12:40:56;;;;;;;1.70;0.30;;;18.70;56.00;;;;;;5113491;22;20058;-79
2021/12/19 12:43:26;;;;;;;4.13;0.45;;;18.70;56.00;;;;;;5032527;28;20045;-78
2021/12/19 12:46:16;;;;;;;2.20;0.40;;;18.70;56.00;;;;;;5049600;28;20076;-78
2021/12/19 12:49:01;;;;;;;2.78;0.70;;;18.70;56.00;;;;;;5038819;28;20136;-78
2021/12/19 12:51:49;;;;;;;2.63;0.40;;;18.70;56.00;;;;;;5038938;28;20131;-78
2021/12/19 12:54:21;;;;;;;0.98;0.30;;;18.70;56.00;;;;;;5037573;28;20048;-78
2021/12/19 12:56:55;;;;;;;;;;;18.60;56.00;;;;;;5035484;28;20044;-78
2021/12/19 12:59:25;;;;;;;1.10;0.30;;;19.70;56.60;;;;;;5047800;28;19924;-78
2021/12/19 13:02:05;;;;;;;0.52;0.20;;;18.60;56.00;;;;;;5033158;28;20044;-78
2021/12/19 13:04:31;;;;;;;0.55;0.30;;;18.60;56.00;;;;;;5036522;28;20531;-78
2021/12/19 13:07:03;;;;;;;0.57;0.20;;;18.60;56.00;;;;;;5033486;28;20080;-78
2021/12/19 13:09:36;;;;;;;2.05;0.40;;;18.60;56.00;;;;;;5032265;28;20611;-78
2021/12/19 13:12:05;;;;;;;2.22;0.40;;;18.60;56.00;;;;;;5013381;28;20041;-78
2021/12/19 13:14:35;;;;;;;0.70;0.20;;;18.70;56.10;;;;;;5037016;28;20101;-78
2021/12/19 13:17:09;;;;;;;0.95;0.20;;;18.60;56.00;;;;;;5030275;28;20065;-78
2021/12/19 13:19:35;;;;;;;1.50;0.40;;;18.60;56.10;;;;;;5031069;28;20493;-79
2021/12/19 13:22:00;;;;;;;1.15;0.30;;;18.60;56.10;;;;;;5035820;28;20123;-79
2021/12/19 13:24:26;;;;;;;1.15;0.50;;;18.60;56.10;;;;;;5037658;28;20152;-78
2021/12/19 13:27:09;;;;;;;0.80;0.30;;;18.60;56.10;;;;;;5035522;28;20083;-77
2021/12/19 13:29:36;;;;;;;0.50;0.20;;;18.60;56.10;;;;;;5031820;28;20505;-78
2021/12/19 13:32:21;;;;;;;0.65;0.28;;;18.70;56.20;;;;;;5048412;28;20049;-78
2021/12/19 13:34:48;;;;;;;0.77;0.35;;;18.60;56.20;;;;;;5032758;28;20420;-78
2021/12/19 13:37:13;;;;;;;0.75;0.20;;;18.60;56.10;;;;;;5032858;28;20041;-78
2021/12/19 13:39:41;;;;;;;1.80;0.35;;;18.60;56.10;;;;;;5028479;28;20114;-78
2021/12/19 13:42:10;;;;;;;1.02;0.30;;;18.50;56.10;;;;;;5013274;28;20103;-78
2021/12/19 13:44:39;;;;;;;0.70;0.13;;;18.50;56.10;;;;;;5029088;28;20057;-78
2021/12/19 13:47:21;;;;;;;1.30;0.40;;;18.50;56.10;;;;;;5029348;28;20095;-78
2021/12/19 13:49:48;;;;;;;1.40;0.22;;;18.60;56.10;;;;;;5029471;28;20061;-78
2021/12/19 13:52:14;;;;;;;1.45;0.20;;;18.50;56.10;;;;;;5012313;28;20049;-77
2021/12/19 13:54:40;;;;;;;0.77;0.22;;;18.50;56.10;;;;;;5013029;28;20045;-78
2021/12/19 13:57:22;;;;;;;1.73;0.40;;;18.50;56.10;;;;;;5029507;28;20081;-78
2021/12/19 13:59:48;;;;;;;0.70;0.30;;;19.10;56.50;;;;;;5028734;28;20091;-78
2021/12/19 14:02:14;;;;;;;1.15;0.30;;;18.50;56.10;;;;;;5030707;28;20050;-78